UGA weather

Ursulo Galvan Airstrip
Empalme, Sonora, Mexico

Public forecast

Using degrees Celsius for public forecast. Weather courtesy of forecast.io.

METAR (pilot weather report)

Closest report is General José María Yáñez International Airport, 17.0 nm (31.5 km) WSW. Retrieved 2019/06/17 00:44 UTC (0 seconds ago):

MMGM 170044Z 25012KT 10SM SCT200 30/24 A2969 RMK 8/001 HZY

TAF (pilot weather forecast)

Closest forecast is General José María Yáñez International Airport, 17.0 nm (31.5 km) WSW. Retrieved 2019/06/16 18:58 UTC (5 hours ago):

TAF MMGM 161651Z 1618/1718 18010KT P6SM SCT020 FM162100 24010KT P6SM SKC FM170300 00000KT P6SM SKC